Time;durP1;ratioP1;P1;durP2;ratioP2;P2;SDS_P1;SDS_P2;PMS_P1;PMS_P2;Temp;Humidity;BMP_temperature;BMP_pressure;BME280_temperature;BME280_humidity;BME280_pressure;Samples;Min_cycle;Max_cycle;Signal;HPM_P1;HPM_P2
2022/07/04 00:00:35;;;;;;;11.30;8.80;;;;;;;19.85;79.01;97467.21;110139;1247;68615;-70
2022/07/04 00:03:05;;;;;;;10.90;9.00;;;;;;;19.85;78.78;97465.98;109982;1247;68554;-71
2022/07/04 00:05:35;;;;;;;9.40;8.20;;;;;;;19.79;79.21;97469.24;110160;1247;60560;-69
2022/07/04 00:08:04;;;;;;;;;;;;;;;19.74;78.67;97468.65;110181;1248;60499;-67
2022/07/04 00:10:33;;;;;;;9.50;8.00;;;;;;;19.68;78.29;97467.82;109930;1248;71547;-69
2022/07/04 00:13:03;;;;;;;11.30;9.60;;;;;;;19.66;80.42;97468.30;110208;1247;67301;-69
2022/07/04 00:15:33;;;;;;;11.00;8.90;;;;;;;19.61;81.27;97469.48;110173;1247;68592;-69
2022/07/04 00:18:03;;;;;;;;;;;;;;;19.57;81.06;97464.39;110062;1247;60514;-69
2022/07/04 00:20:32;;;;;;;10.80;9.10;;;;;;;19.52;81.42;97470.83;110157;1247;60507;-71
2022/07/04 00:23:01;;;;;;;10.80;8.50;;;;;;;19.45;81.65;97471.69;110123;1248;72295;-69
2022/07/04 00:25:32;;;;;;;9.60;8.60;;;;;;;19.40;81.69;97477.23;109947;1250;68727;-70
2022/07/04 00:28:01;;;;;;;9.00;7.70;;;;;;;19.34;80.96;97477.19;110173;1247;68418;-71
2022/07/04 00:30:32;;;;;;;11.60;8.90;;;;;;;19.28;81.61;97476.69;110194;1247;60554;-70
2022/07/04 00:33:01;;;;;;;11.10;9.40;;;;;;;19.25;82.13;97479.40;110166;1247;60506;-69
2022/07/04 00:35:31;;;;;;;12.10;9.60;;;;;;;19.23;81.79;97475.85;109956;1250;72859;-69
2022/07/04 00:38:01;;;;;;;10.40;8.50;;;;;;;19.23;80.26;97470.36;110003;1247;68076;-70
2022/07/04 00:40:30;;;;;;;12.00;9.40;;;;;;;19.25;79.14;97475.52;109990;1248;69425;-69
2022/07/04 00:43:03;;;;;;;10.30;8.30;;;;;;;19.24;79.52;97476.98;110183;1247;60536;-69
2022/07/04 00:45:32;;;;;;;9.00;7.50;;;;;;;19.23;78.83;97476.79;110165;1247;60522;-70
2022/07/04 00:48:02;;;;;;;9.40;7.90;;;;;;;19.22;78.48;97475.80;110165;1247;72348;-69
2022/07/04 00:50:32;;;;;;;9.00;7.60;;;;;;;19.21;80.23;97475.91;110147;1247;67543;-71
2022/07/04 00:53:03;;;;;;;9.60;8.60;;;;;;;19.21;82.13;97471.88;109960;1247;68521;-69
2022/07/04 00:55:34;;;;;;;8.70;7.70;;;;;;;19.19;82.26;97472.61;110003;1247;60544;-71
2022/07/04 00:58:04;;;;;;;10.40;8.70;;;;;;;19.16;80.95;97470.08;110034;1247;60945;-69
2022/07/04 01:00:34;;;;;;;11.60;9.60;;;;;;;19.13;81.35;97471.13;110134;1248;72616;-69
2022/07/04 01:03:04;;;;;;;13.60;10.50;;;;;;;19.07;83.72;97471.03;110211;1247;68640;-69
2022/07/04 01:05:33;;;;;;;12.40;11.10;;;;;;;19.02;83.83;97467.02;109873;1248;68604;-66
2022/07/04 01:08:04;;;;;;;11.40;9.30;;;;;;;18.97;84.22;97464.13;109961;1250;60558;-71
2022/07/04 01:10:34;;;;;;;11.60;10.00;;;;;;;18.94;84.43;97461.49;110168;1247;60508;-70
2022/07/04 01:13:03;;;;;;;10.80;9.70;;;;;;;18.90;84.84;97462.78;110163;1245;71567;-70
2022/07/04 01:15:33;;;;;;;12.30;10.50;;;;;;;18.87;84.47;97462.62;110201;1247;68731;-69
2022/07/04 01:18:02;;;;;;;11.70;10.00;;;;;;;18.84;85.50;97467.67;110138;1247;69148;-70
2022/07/04 01:20:36;;;;;;;11.10;9.70;;;;;;;18.83;84.06;97467.74;110120;1248;60466;-68
2022/07/04 01:23:07;;;;;;;12.50;9.90;;;;;;;18.85;84.39;97464.89;110217;1247;60541;-67
2022/07/04 01:25:37;;;;;;;9.10;7.50;;;;;;;18.87;84.26;97458.85;110148;1247;71506;-67
2022/07/04 01:28:06;;;;;;;12.30;9.10;;;;;;;18.90;83.22;97461.26;110186;1247;68605;-69
2022/07/04 01:30:36;;;;;;;;;;;;;;;18.89;81.55;97462.18;109975;1248;68531;-67
2022/07/04 01:33:06;;;;;;;12.20;10.30;;;;;;;18.86;81.49;97462.38;110105;1247;60510;-71
2022/07/04 01:35:36;;;;;;;11.90;9.50;;;;;;;18.83;84.10;97464.92;110031;1247;60487;-68
2022/07/04 01:38:06;;;;;;;12.00;9.20;;;;;;;18.80;84.39;97470.02;109947;1249;72342;-68
2022/07/04 01:40:36;;;;;;;9.60;8.40;;;;;;;18.76;84.38;97470.80;109990;1247;68597;-68
2022/07/04 01:43:06;;;;;;;9.30;7.50;;;;;;;18.72;81.24;97468.70;110127;1247;69231;-69
2022/07/04 01:45:39;;;;;;;9.90;8.70;;;;;;;18.70;80.90;97471.14;110164;1247;61017;-70
2022/07/04 01:48:10;;;;;;;13.40;10.40;;;;;;;18.65;81.58;97473.27;110214;1248;60573;-70
2022/07/04 01:50:40;;;;;;;13.10;11.30;;;;;;;18.64;83.63;97473.48;110195;1247;71364;-70
2022/07/04 01:53:11;;;;;;;12.80;9.70;;;;;;;18.64;86.39;97470.30;109996;1250;67559;-69
2022/07/04 01:55:40;;;;;;;10.80;9.60;;;;;;;18.65;84.61;97469.83;109980;1248;68730;-68
2022/07/04 01:58:10;;;;;;;11.00;8.80;;;;;;;18.66;82.52;97466.83;109741;1250;60523;-69
2022/07/04 02:03:30;;;;;;;9.80;8.50;;;;;;;18.66;81.89;97472.55;109917;1247;71545;-69
2022/07/04 02:06:00;;;;;;;10.70;9.00;;;;;;;18.62;81.49;97473.47;109981;1247;68388;-69
2022/07/04 02:09:14;;;;;;;12.10;8.90;;;;;;;18.59;84.73;97478.70;109881;1250;68941;-70
2022/07/04 02:11:20;;;;;;;11.10;9.40;;;;;;;18.57;85.79;97479.81;110136;1248;61033;-70
2022/07/04 02:13:50;;;;;;;13.00;10.40;;;;;;;18.56;86.85;97481.52;110205;1247;60548;-69
2022/07/04 02:16:20;;;;;;;11.60;10.40;;;;;;;18.54;86.80;97485.23;109936;1247;71520;-69
2022/07/04 02:18:50;;;;;;;11.00;9.00;;;;;;;18.55;87.20;97481.30;110119;1247;68635;-70
2022/07/04 02:21:19;;;;;;;13.50;10.60;;;;;;;18.57;87.34;97481.73;110128;1248;69232;-70
2022/07/04 02:23:49;;;;;;;12.30;10.50;;;;;;;18.60;87.94;97485.14;110047;1247;60472;-70
2022/07/04 02:26:18;;;;;;;11.90;10.30;;;;;;;18.61;87.24;97484.89;110178;1245;60487;-69
2022/07/04 02:28:48;;;;;;;11.80;9.00;;;;;;;18.62;86.79;97484.28;110193;1247;72133;-70
2022/07/04 02:31:17;;;;;;;11.70;10.10;;;;;;;18.62;85.66;97487.93;109749;1250;68194;-69
2022/07/04 02:33:49;;;;;;;13.20;11.20;;;;;;;18.61;87.84;97485.41;109933;1249;69384;-70
2022/07/04 02:36:20;;;;;;;11.90;9.80;;;;;;;18.60;87.78;97483.39;110006;1247;60531;-72
2022/07/04 02:38:50;;;;;;;12.10;10.40;;;;;;;18.62;88.53;97484.61;110253;1247;60695;-70
2022/07/04 02:41:21;;;;;;;12.90;10.30;;;;;;;18.64;88.54;97485.66;109937;1248;72423;-70
2022/07/04 02:43:51;;;;;;;11.60;10.20;;;;;;;18.69;88.44;97487.29;110014;1250;68566;-70
2022/07/04 02:46:23;;;;;;;11.50;9.70;;;;;;;18.74;87.65;97488.33;109954;1248;68648;-72
2022/07/04 02:48:53;;;;;;;11.60;9.60;;;;;;;18.76;86.41;97489.34;110158;1247;60548;-70
2022/07/04 02:51:23;;;;;;;11.50;9.60;;;;;;;18.77;84.58;97487.85;110198;1247;60462;-68
2022/07/04 02:53:53;;;;;;;10.00;8.90;;;;;;;18.77;86.09;97487.98;110162;1249;71525;-68
2022/07/04 02:56:22;;;;;;;;;;;;;;;18.77;86.50;97490.64;109947;1250;66762;-68
2022/07/04 02:58:52;;;;;;;10.50;8.40;;;;;;;18.77;87.63;97488.68;110187;1247;68627;-71
2022/07/04 03:01:22;;;;;;;12.10;10.20;;;;;;;18.77;87.36;97486.79;110251;1247;60555;-69
2022/07/04 03:03:53;;;;;;;12.40;10.00;;;;;;;18.76;88.14;97487.73;110034;1247;60518;-69
2022/07/04 03:06:24;;;;;;;12.70;10.30;;;;;;;18.77;88.10;97492.55;110168;1247;71519;-71
2022/07/04 03:08:54;;;;;;;13.30;10.40;;;;;;;18.79;88.18;97486.20;110206;1247;67879;-69
2022/07/04 03:11:23;;;;;;;14.10;10.40;;;;;;;18.80;87.60;97482.55;110256;1247;68459;-71
2022/07/04 03:13:54;;;;;;;12.80;11.10;;;;;;;18.82;88.14;97482.48;110172;1248;60542;-71
2022/07/04 03:16:23;;;;;;;10.40;9.20;;;;;;;18.86;87.44;97489.70;110006;1248;60499;-71
2022/07/04 03:18:53;;;;;;;;;;;;;;;18.86;85.45;97489.17;110031;1250;71532;-71
2022/07/04 03:21:22;;;;;;;11.00;9.20;;;;;;;18.82;84.97;97489.55;110150;1247;68389;-68
2022/07/04 03:23:57;;;;;;;10.20;9.10;;;;;;;18.78;84.54;97487.69;110017;1247;68454;-71
2022/07/04 03:26:30;;;;;;;10.60;8.70;;;;;;;18.76;84.82;97485.59;110140;1247;60600;-69
2022/07/04 03:29:01;;;;;;;12.60;9.80;;;;;;;18.75;86.34;97483.20;110072;1250;60625;-69
2022/07/04 03:31:30;;;;;;;12.20;9.80;;;;;;;18.76;87.20;97477.34;110179;1247;72986;-68
2022/07/04 03:34:00;;;;;;;11.70;9.00;;;;;;;18.78;86.88;97480.64;109940;1248;68438;-70
2022/07/04 03:36:30;;;;;;;12.20;10.20;;;;;;;18.81;86.54;97481.05;110145;1247;70630;-71
2022/07/04 03:38:59;;;;;;;13.30;9.50;;;;;;;18.84;86.55;97486.93;110168;1247;60554;-67
2022/07/04 03:41:29;;;;;;;8.40;7.40;;;;;;;18.89;85.77;97492.42;110151;1247;60436;-70
2022/07/04 03:43:59;;;;;;;14.20;10.80;;;;;;;18.96;85.53;97498.74;110160;1247;71554;-70
2022/07/04 03:46:28;;;;;;;12.90;10.40;;;;;;;18.96;85.43;97499.57;110320;1247;68733;-70
2022/07/04 03:48:59;;;;;;;11.70;10.30;;;;;;;18.93;85.42;97504.64;110164;1247;68682;-69
2022/07/04 03:51:28;;;;;;;16.50;12.50;;;;;;;18.93;85.48;97504.91;109958;1250;60425;-69
2022/07/04 03:53:59;;;;;;;13.90;10.80;;;;;;;18.93;85.09;97504.17;110011;1248;60492;-71
2022/07/04 03:56:31;;;;;;;13.10;10.80;;;;;;;18.95;85.86;97502.30;110238;1247;71674;-70
2022/07/04 03:59:13;;;;;;;11.90;10.50;;;;;;;18.99;86.65;97495.02;110017;1250;67907;-70
2022/07/04 04:01:49;;;;;;;14.10;10.50;;;;;;;19.07;86.55;97493.48;110060;1248;68484;-69
2022/07/04 04:07:16;;;;;;;14.90;11.40;;;;;;;19.25;84.68;97493.67;110064;1247;60960;-70
2022/07/04 04:09:53;;;;;;;10.40;9.00;;;;;;;19.31;85.63;97498.18;110212;1247;72168;-71
2022/07/04 04:12:34;;;;;;;10.80;9.00;;;;;;;19.36;84.58;97499.05;110260;1247;67680;-70
2022/07/04 04:15:15;;;;;;;12.40;10.60;;;;;;;19.40;84.15;97499.02;110245;1247;68459;-69
2022/07/04 04:17:54;;;;;;;12.00;10.10;;;;;;;19.42;84.17;97499.25;110011;1250;60537;-71
2022/07/04 04:20:24;;;;;;;12.20;9.90;;;;;;;19.46;83.54;97496.51;110167;1247;60488;-70
2022/07/04 04:22:53;;;;;;;16.00;12.40;;;;;;;19.51;83.79;97501.67;110146;1247;72272;-71
2022/07/04 04:25:27;;;;;;;11.10;9.20;;;;;;;19.53;83.27;97505.09;110213;1247;67580;-69
2022/07/04 04:27:56;;;;;;;13.00;11.00;;;;;;;19.58;83.67;97503.89;110170;1247;68735;-71
2022/07/04 04:30:27;;;;;;;11.40;9.90;;;;;;;19.67;83.47;97497.49;110193;1245;60513;-71
2022/07/04 04:32:56;;;;;;;;;;;;;;;19.80;83.39;97495.73;110196;1247;60561;-72
2022/07/04 04:35:26;;;;;;;10.90;9.80;;;;;;;19.96;83.13;97498.52;109992;1249;72583;-74
2022/07/04 04:37:55;;;;;;;10.70;9.60;;;;;;;20.12;82.63;97502.77;110240;1247;68416;-72
2022/07/04 04:40:25;;;;;;;11.60;10.00;;;;;;;20.31;82.26;97504.42;110234;1247;69214;-73
2022/07/04 04:42:54;;;;;;;12.60;10.90;;;;;;;20.52;81.36;97508.66;110213;1247;60562;-72
2022/07/04 04:45:23;;;;;;;11.30;10.10;;;;;;;20.69;80.96;97509.95;110189;1247;60482;-72
2022/07/04 04:47:53;;;;;;;11.40;9.30;;;;;;;20.86;80.58;97509.90;110004;1250;72445;-72
2022/07/04 04:50:23;;;;;;;12.30;9.40;;;;;;;21.11;79.76;97507.77;110152;1247;68554;-69
2022/07/04 04:52:53;;;;;;;9.30;8.20;;;;;;;21.34;78.78;97508.66;110144;1247;68597;-70
2022/07/04 04:55:23;;;;;;;10.70;9.50;;;;;;;21.56;77.64;97505.86;110129;1247;60871;-69
2022/07/04 04:57:52;;;;;;;12.30;10.10;;;;;;;21.67;76.62;97510.44;110191;1247;60512;-71
2022/07/04 05:00:21;;;;;;;10.70;9.50;;;;;;;21.72;76.41;97513.71;110181;1247;71593;-70
2022/07/04 05:02:50;;;;;;;11.80;8.70;;;;;;;21.79;76.12;97513.42;110200;1247;67922;-69
2022/07/04 05:05:20;;;;;;;12.30;8.90;;;;;;;21.92;76.25;97508.39;110141;1247;69533;-69
2022/07/04 05:07:50;;;;;;;11.20;9.30;;;;;;;22.03;75.42;97507.62;110190;1247;60486;-67
2022/07/04 05:10:32;;;;;;;11.20;8.20;;;;;;;22.16;75.79;97508.20;110176;1248;60559;-70
2022/07/04 05:13:06;;;;;;;10.60;9.50;;;;;;;22.30;74.85;97512.19;110286;1247;71564;-73
2022/07/04 05:15:35;;;;;;;10.90;8.70;;;;;;;22.43;74.30;97512.98;110181;1247;68608;-73
2022/07/04 05:18:05;;;;;;;11.90;9.00;;;;;;;22.65;73.37;97515.81;110257;1247;68577;-70
2022/07/04 05:20:34;;;;;;;10.10;9.10;;;;;;;22.92;72.50;97515.59;110246;1247;60489;-70
2022/07/04 05:23:03;;;;;;;9.70;8.70;;;;;;;23.23;69.86;97515.80;110220;1247;60561;-71
2022/07/04 05:25:32;;;;;;;10.00;8.90;;;;;;;23.42;69.29;97508.23;110172;1247;71603;-70
2022/07/04 05:28:01;;;;;;;12.00;9.30;;;;;;;23.43;68.33;97513.14;109908;1248;67859;-68
2022/07/04 05:30:30;;;;;;;10.10;9.00;;;;;;;23.51;67.69;97515.06;110204;1247;69532;-69
2022/07/04 05:33:00;;;;;;;10.50;8.90;;;;;;;23.55;65.65;97515.63;110139;1250;60552;-71
2022/07/04 05:35:31;;;;;;;10.70;7.60;;;;;;;23.55;65.36;97514.85;110167;1247;60478;-68
2022/07/04 05:38:00;;;;;;;10.40;7.60;;;;;;;23.75;66.83;97514.08;110176;1247;72378;-68
2022/07/04 05:40:30;;;;;;;8.80;7.50;;;;;;;23.87;65.78;97511.47;109913;1248;67943;-69
2022/07/04 05:43:00;;;;;;;9.50;8.50;;;;;;;24.01;65.51;97508.08;110195;1247;68719;-69
2022/07/04 05:45:29;;;;;;;11.00;8.90;;;;;;;24.06;64.90;97504.46;110221;1247;60557;-69
2022/07/04 05:47:58;;;;;;;9.70;8.70;;;;;;;24.04;64.51;97501.98;110232;1247;60447;-69
2022/07/04 05:50:27;;;;;;;9.00;8.10;;;;;;;24.10;64.75;97501.58;110199;1247;71610;-68
2022/07/04 05:53:00;;;;;;;10.80;9.40;;;;;;;24.24;64.24;97501.22;110190;1247;68508;-70
2022/07/04 05:55:29;;;;;;;9.40;8.30;;;;;;;24.41;64.57;97501.92;110191;1247;67800;-71
2022/07/04 05:57:58;;;;;;;11.30;8.40;;;;;;;24.50;63.76;97497.94;110207;1247;60550;-71
2022/07/04 06:00:28;;;;;;;;;;;;;;;24.51;63.68;97500.20;109910;1250;60453;-69
2022/07/04 06:02:57;;;;;;;7.70;7.00;;;;;;;24.42;63.70;97501.31;110181;1247;71469;-72
2022/07/04 06:05:27;;;;;;;8.70;7.90;;;;;;;24.54;63.80;97503.77;110182;1247;68606;-72
2022/07/04 06:07:56;;;;;;;11.00;8.90;;;;;;;24.43;63.53;97501.20;110271;1247;69457;-70
2022/07/04 06:10:29;;;;;;;10.10;9.00;;;;;;;24.36;64.14;97499.87;110040;1247;60545;-70
2022/07/04 06:12:58;;;;;;;;;;;;;;;24.45;64.56;97503.91;110236;1247;60561;-72
2022/07/04 06:15:27;;;;;;;9.20;8.30;;;;;;;24.40;64.77;97501.58;110228;1247;71294;-74
2022/07/04 06:17:57;;;;;;;9.30;8.20;;;;;;;24.36;63.94;97500.55;110245;1247;68708;-72
2022/07/04 06:20:26;;;;;;;9.90;8.20;;;;;;;24.41;63.78;97499.42;110199;1247;69420;-68
2022/07/04 06:22:56;;;;;;;9.90;8.40;;;;;;;24.48;64.35;97499.32;110183;1247;60915;-71
2022/07/04 06:25:25;;;;;;;9.80;8.90;;;;;;;24.58;63.62;97498.11;110140;1247;60933;-70
2022/07/04 06:27:55;;;;;;;11.10;9.40;;;;;;;24.46;62.89;97497.96;110171;1250;72345;-67
2022/07/04 06:30:24;;;;;;;10.00;9.00;;;;;;;24.42;63.09;97495.92;110177;1247;67797;-71
2022/07/04 06:32:57;;;;;;;10.10;9.00;;;;;;;24.41;63.44;97491.98;109943;1248;69452;-70
2022/07/04 06:35:56;;;;;;;10.30;9.30;;;;;;;24.49;63.34;97490.05;110199;1247;60476;-71
2022/07/04 06:38:27;;;;;;;8.70;7.40;;;;;;;24.51;63.56;97494.20;110248;1248;60552;-71
2022/07/04 06:40:59;;;;;;;10.10;8.90;;;;;;;24.51;63.23;97494.45;110237;1247;73040;-69
2022/07/04 06:43:28;;;;;;;9.40;8.20;;;;;;;24.69;62.62;97497.50;110304;1248;67846;-70
2022/07/04 06:45:57;;;;;;;8.50;7.60;;;;;;;24.75;63.04;97499.30;110200;1247;69543;-73
2022/07/04 06:48:27;;;;;;;8.10;7.30;;;;;;;24.98;62.93;97498.07;110160;1249;60460;-71
2022/07/04 06:50:56;;;;;;;9.20;8.20;;;;;;;25.10;61.99;97495.42;110262;1247;60494;-71
2022/07/04 06:53:25;;;;;;;10.40;9.40;;;;;;;25.12;61.49;97494.10;110186;1247;72615;-70
2022/07/04 06:55:54;;;;;;;8.50;7.60;;;;;;;25.23;61.58;97490.26;110234;1249;68719;-70
2022/07/04 06:58:23;;;;;;;10.20;9.20;;;;;;;25.43;61.10;97488.29;110176;1248;68706;-71
2022/07/04 07:00:52;;;;;;;9.80;8.40;;;;;;;25.62;60.36;97490.02;109894;1250;61008;-71
2022/07/04 07:03:21;;;;;;;;;;;;;;;25.92;58.81;97493.32;110003;1247;60542;-71
2022/07/04 07:05:50;;;;;;;11.80;9.30;;;;;;;26.29;57.76;97499.55;110222;1247;71591;-71
2022/07/04 07:08:30;;;;;;;8.70;7.80;;;;;;;26.70;56.59;97504.08;110189;1248;68604;-71
2022/07/04 07:11:19;;;;;;;9.20;8.20;;;;;;;26.47;56.79;97501.38;110243;1247;68703;-71
2022/07/04 07:13:51;;;;;;;9.20;8.30;;;;;;;26.82;55.20;97494.46;110183;1250;60490;-68
2022/07/04 07:16:20;;;;;;;8.60;7.80;;;;;;;27.23;55.00;97493.37;110026;1250;60526;-68
2022/07/04 07:18:50;;;;;;;9.70;8.80;;;;;;;27.37;55.17;97490.98;110294;1248;72337;-69
2022/07/04 07:21:18;;;;;;;;;;;;;;;27.19;54.95;97492.00;110022;1248;68552;-69
2022/07/04 07:23:47;;;;;;;8.70;7.90;;;;;;;27.20;55.31;97487.66;109887;1250;68644;-69
2022/07/04 07:26:16;;;;;;;10.30;9.10;;;;;;;27.45;55.40;97484.70;110174;1248;60560;-70
2022/07/04 07:28:55;;;;;;;10.80;8.00;;;;;;;27.68;54.29;97483.71;109691;1248;700596;-70
2022/07/04 07:31:24;;;;;;;8.70;7.90;;;;;;;27.42;54.48;97483.69;109987;1247;70611;-72
2022/07/04 07:33:53;;;;;;;9.70;8.50;;;;;;;27.73;53.62;97483.18;110185;1248;68604;-69
2022/07/04 07:36:22;;;;;;;9.60;8.50;;;;;;;27.70;53.78;97488.16;110135;1248;68657;-71
2022/07/04 07:38:53;;;;;;;;;;;;;;;27.68;53.51;97486.15;110002;1250;60605;-70
2022/07/04 07:41:22;;;;;;;9.60;8.10;;;;;;;27.77;53.60;97482.51;110313;1247;60463;-69
2022/07/04 07:43:51;;;;;;;10.30;8.80;;;;;;;27.69;52.99;97478.05;110208;1250;71599;-70
2022/07/04 07:46:20;;;;;;;9.10;8.30;;;;;;;27.85;52.74;97477.32;109987;1250;69306;-72
2022/07/04 07:48:49;;;;;;;9.50;8.50;;;;;;;28.32;52.53;97479.56;110191;1250;68627;-71
2022/07/04 07:51:18;;;;;;;9.90;8.40;;;;;;;28.71;50.41;97476.36;109942;1250;60560;-69
2022/07/04 07:53:47;;;;;;;8.90;8.10;;;;;;;28.89;50.09;97476.07;109990;1250;60539;-70
2022/07/04 07:56:36;;;;;;;10.30;9.40;;;;;;;29.54;49.59;97476.85;110131;1249;72372;-72
2022/07/04 07:59:05;;;;;;;;;;;;;;;30.03;48.79;97474.78;110133;1247;67911;-71
2022/07/04 08:01:34;;;;;;;10.70;7.90;;;;;;;30.60;48.32;97473.05;110130;1249;69431;-70
2022/07/04 08:06:51;;;;;;;9.50;8.60;;;;;;;31.15;44.81;97469.90;110194;1248;60490;-69
2022/07/04 08:09:40;;;;;;;10.20;8.50;;;;;;;31.03;44.21;97466.15;109822;1250;72321;-70
2022/07/04 08:12:10;;;;;;;9.30;8.40;;;;;;;30.81;44.23;97469.23;110204;1248;67875;-69
2022/07/04 08:14:39;;;;;;;9.00;8.20;;;;;;;31.02;44.66;97471.32;110006;1250;68547;-67
2022/07/04 08:17:10;;;;;;;;;;;;;;;31.68;45.09;97465.81;110052;1250;60568;-69
2022/07/04 08:19:40;;;;;;;8.30;7.40;;;;;;;32.21;43.84;97466.45;109976;1250;60529;-70
2022/07/04 08:22:09;;;;;;;9.40;8.40;;;;;;;32.66;42.28;97464.31;110146;1250;71636;-70
2022/07/04 08:24:44;;;;;;;11.60;8.40;;;;;;;33.06;42.44;97467.14;110172;1250;69237;-72
2022/07/04 08:27:13;;;;;;;10.40;9.50;;;;;;;33.27;40.16;97464.86;109986;1247;68605;-70
2022/07/04 08:29:42;;;;;;;9.80;8.90;;;;;;;33.23;40.44;97466.28;109865;1250;60552;-70
2022/07/04 08:32:12;;;;;;;8.00;7.30;;;;;;;33.37;40.34;97461.28;109999;1249;60512;-72
2022/07/04 08:34:42;;;;;;;9.80;8.90;;;;;;;33.70;39.48;97455.13;109923;1250;72438;-71
2022/07/04 08:37:12;;;;;;;10.80;8.90;;;;;;;33.57;38.01;97460.22;110192;1248;67779;-68
2022/07/04 08:39:41;;;;;;;11.60;10.50;;;;;;;33.41;38.30;97460.30;110170;1247;69518;-71
2022/07/04 08:42:17;;;;;;;10.70;9.70;;;;;;;33.36;38.51;97462.14;110095;1250;60555;-70
2022/07/04 08:44:51;;;;;;;8.30;7.50;;;;;;;33.28;38.52;97461.23;110286;1250;60889;-69
2022/07/04 08:47:22;;;;;;;8.70;7.80;;;;;;;33.52;38.20;97458.78;110190;1249;72983;-70
2022/07/04 08:50:06;;;;;;;8.40;7.50;;;;;;;33.85;37.17;97458.67;110188;1250;67978;-70
2022/07/04 08:52:43;;;;;;;8.00;7.10;;;;;;;34.10;36.15;97461.91;110147;1247;68640;-71
2022/07/04 09:00:52;;;;;;;8.90;7.20;;;;;;;34.07;35.62;97464.40;110181;1249;72969;-70
2022/07/04 09:03:21;;;;;;;8.50;7.40;;;;;;;34.33;35.90;97460.60;110041;1249;68213;-70
2022/07/04 09:05:51;;;;;;;7.80;7.00;;;;;;;34.07;35.81;97455.38;110127;1248;68748;-69
2022/07/04 09:08:21;;;;;;;7.90;7.10;;;;;;;34.39;35.51;97452.10;110238;1248;60428;-71
2022/07/04 09:10:51;;;;;;;8.80;7.90;;;;;;;34.86;35.45;97454.95;110164;1250;60542;-69
2022/07/04 09:13:20;;;;;;;8.30;7.10;;;;;;;35.23;34.24;97455.39;110243;1248;72857;-68
2022/07/04 09:15:51;;;;;;;9.10;8.30;;;;;;;35.11;33.98;97453.60;110204;1249;68466;-68
2022/07/04 09:18:32;;;;;;;8.20;7.40;;;;;;;35.06;33.99;97452.66;110183;1250;69454;-70
2022/07/04 09:21:04;;;;;;;8.00;6.40;;;;;;;34.38;34.41;97447.81;110184;1249;60480;-70
2022/07/04 09:23:38;;;;;;;9.10;6.90;;;;;;;34.36;35.27;97443.08;110060;1250;60551;-69
2022/07/04 09:26:21;;;;;;;7.60;6.70;;;;;;;35.27;33.91;97441.42;110173;1250;72372;-69
2022/07/04 09:28:58;;;;;;;7.80;7.00;;;;;;;35.81;33.22;97435.07;109997;1250;68449;-69
2022/07/04 09:31:30;;;;;;;7.30;6.60;;;;;;;36.29;32.34;97427.48;110199;1248;69465;-68
2022/07/04 09:34:03;;;;;;;6.90;6.20;;;;;;;36.56;31.20;97428.73;110000;1250;60541;-70
2022/07/04 09:36:41;;;;;;;6.70;6.00;;;;;;;36.35;30.43;97421.48;110220;1249;60473;-70
2022/07/04 09:39:17;;;;;;;6.50;5.80;;;;;;;36.32;30.62;97418.66;110184;1250;72373;-70
2022/07/04 09:42:00;;;;;;;6.70;6.10;;;;;;;36.25;30.07;97418.09;110207;1247;68723;-69
2022/07/04 09:44:48;;;;;;;6.20;5.60;;;;;;;36.38;30.74;97417.89;110163;1250;69538;-69
2022/07/04 09:47:22;;;;;;;;;;;;;;;36.51;30.37;97414.91;110035;1251;60470;-70
2022/07/04 09:50:06;;;;;;;7.90;7.20;;;;;;;36.42;29.87;97410.79;109876;1251;60563;-69
2022/07/04 09:52:57;;;;;;;7.60;6.80;;;;;;;36.69;30.70;97410.05;110029;1250;71926;-70
2022/07/04 09:55:37;;;;;;;8.00;6.50;;;;;;;36.38;30.52;97406.77;110249;1248;68738;-71
2022/07/04 09:58:11;;;;;;;9.00;6.40;;;;;;;35.98;30.66;97409.02;110149;1248;69293;-69
2022/07/04 10:00:45;;;;;;;7.20;6.50;;;;;;;34.43;31.27;97411.98;109954;1251;60540;-69
2022/07/04 10:03:23;;;;;;;8.90;7.40;;;;;;;33.08;33.56;97410.33;110002;1250;60534;-69
2022/07/04 10:06:11;;;;;;;7.60;6.90;;;;;;;32.78;33.70;97410.17;110153;1250;72361;-68
2022/07/04 10:08:42;;;;;;;8.20;7.00;;;;;;;32.81;34.65;97410.85;110116;1248;67934;-69
2022/07/04 10:11:12;;;;;;;6.60;5.80;;;;;;;32.91;35.13;97414.18;110060;1251;69257;-72
2022/07/04 10:13:49;;;;;;;5.90;5.10;;;;;;;33.17;35.27;97413.48;110107;1250;60536;-71
2022/07/04 10:16:18;;;;;;;7.10;5.80;;;;;;;33.28;33.76;97408.86;110170;1250;60443;-71
2022/07/04 10:18:47;;;;;;;6.60;6.00;;;;;;;33.29;33.43;97406.38;110158;1250;70579;-69
2022/07/04 10:21:18;;;;;;;7.50;6.00;;;;;;;33.05;33.33;97408.14;109984;1250;68405;-69
2022/07/04 10:23:49;;;;;;;7.50;6.00;;;;;;;32.84;31.93;97404.81;109996;1251;69484;-68
2022/07/04 10:26:20;;;;;;;6.50;4.90;;;;;;;32.93;32.00;97405.55;110177;1248;60577;-70
2022/07/04 10:28:52;;;;;;;8.50;5.20;;;;;;;33.03;30.79;97404.29;110208;1248;60483;-70
2022/07/04 10:31:23;;;;;;;6.10;5.50;;;;;;;33.13;30.96;97403.79;110057;1249;73017;-69
2022/07/04 10:33:54;;;;;;;5.40;4.90;;;;;;;32.90;33.63;97398.84;109799;1254;69088;-70
2022/07/04 10:36:28;;;;;;;6.50;5.90;;;;;;;33.00;33.33;97401.71;109959;1251;69550;-70
2022/07/04 10:38:59;;;;;;;6.80;5.90;;;;;;;33.25;32.50;97398.77;110164;1248;60494;-68
2022/07/04 10:41:30;;;;;;;5.70;5.20;;;;;;;33.36;31.02;97389.38;109864;1250;60531;-69
2022/07/04 10:44:09;;;;;;;6.80;5.80;;;;;;;33.45;30.23;97383.98;110154;1247;72742;-70
2022/07/04 10:46:47;;;;;;;7.20;6.30;;;;;;;33.41;29.94;97379.24;109943;1250;68680;-70
2022/07/04 10:49:19;;;;;;;8.00;6.60;;;;;;;33.26;30.28;97380.56;110151;1249;70028;-69
2022/07/04 10:51:50;;;;;;;7.30;5.80;;;;;;;33.00;31.20;97384.96;110262;1250;60513;-71
2022/07/04 10:54:41;;;;;;;8.20;5.50;;;;;;;32.79;31.76;97376.35;110120;1250;60461;-69
2022/07/04 10:57:14;;;;;;;7.60;6.00;;;;;;;33.20;32.73;97371.52;110200;1248;72786;-70
2022/07/04 11:00:03;;;;;;;6.60;5.90;;;;;;;33.54;31.03;97367.98;110180;1247;68053;-71
2022/07/04 11:02:34;;;;;;;6.60;5.40;;;;;;;34.05;30.86;97364.10;110240;1248;69377;-71
2022/07/04 11:05:08;;;;;;;6.50;5.10;;;;;;;34.42;29.87;97365.02;110164;1248;60484;-68
2022/07/04 11:07:36;;;;;;;6.90;5.80;;;;;;;34.62;28.44;97362.39;110207;1247;60524;-69
2022/07/04 11:10:16;;;;;;;7.80;6.30;;;;;;;35.07;28.97;97356.16;110159;1248;72333;-67
2022/07/04 11:12:54;;;;;;;6.40;5.30;;;;;;;35.45;27.53;97351.19;110025;1250;67632;-70
2022/07/04 11:15:24;;;;;;;6.40;5.70;;;;;;;35.64;26.03;97349.81;110154;1250;68480;-69
2022/07/04 11:18:01;;;;;;;5.40;4.50;;;;;;;35.99;27.17;97343.61;110206;1248;60549;-69
2022/07/04 11:20:33;;;;;;;5.80;5.30;;;;;;;36.32;25.69;97336.27;110071;1250;60860;-68
2022/07/04 11:23:14;;;;;;;9.40;6.00;;;;;;;36.26;26.20;97326.23;110053;1247;72931;-68
2022/07/04 11:25:45;;;;;;;6.80;5.70;;;;;;;35.58;26.32;97325.46;109963;1251;68002;-69
2022/07/04 11:28:22;;;;;;;7.30;5.90;;;;;;;35.70;26.36;97328.17;110242;1247;68600;-70
2022/07/04 11:31:11;;;;;;;6.30;4.60;;;;;;;36.03;26.39;97323.90;110170;1247;60649;-68
2022/07/04 11:33:42;;;;;;;5.20;4.70;;;;;;;36.32;25.47;97324.35;109951;1248;60491;-70
2022/07/04 11:36:16;;;;;;;6.30;5.20;;;;;;;36.53;25.70;97325.47;109978;1250;71377;-71
2022/07/04 11:39:01;;;;;;;5.70;4.90;;;;;;;36.70;25.86;97322.42;109915;1250;67846;-70
2022/07/04 11:47:19;;;;;;;5.70;5.00;;;;;;;36.55;26.14;97320.55;110009;1247;60552;-69
2022/07/04 11:49:53;;;;;;;5.30;4.80;;;;;;;36.30;26.93;97324.64;109956;1250;72218;-69
2022/07/04 11:52:25;;;;;;;6.20;5.20;;;;;;;36.09;27.55;97320.91;110182;1248;68206;-69
2022/07/04 11:55:17;;;;;;;7.60;5.40;;;;;;;35.81;27.67;97320.31;109838;1249;70472;-70
2022/07/04 11:57:48;;;;;;;6.10;5.50;;;;;;;35.47;28.23;97325.80;109940;1250;60497;-71
2022/07/04 12:00:20;;;;;;;5.70;5.10;;;;;;;35.21;28.46;97326.78;110218;1246;60494;-70
2022/07/04 12:02:53;;;;;;;5.80;4.80;;;;;;;34.88;28.82;97330.81;110010;1248;70400;-71
2022/07/04 12:05:23;;;;;;;5.50;4.80;;;;;;;34.77;29.18;97325.26;109993;1250;68560;-70